createdAt,value
2018-03-23T00:00:51.692Z,20.08
2018-03-23T00:03:17.755Z,20.08
2018-03-23T00:05:43.720Z,20.08
2018-03-23T00:08:09.676Z,20.15
2018-03-23T00:10:35.637Z,20.16
2018-03-23T00:13:01.605Z,20.03
2018-03-23T00:15:27.561Z,20.10
2018-03-23T00:17:53.530Z,19.97
2018-03-23T00:20:19.485Z,20.05
2018-03-23T00:22:45.446Z,20.04
2018-03-23T00:25:11.423Z,19.99
2018-03-23T00:27:37.401Z,20.05
2018-03-23T00:30:03.338Z,20.00
2018-03-23T00:32:29.309Z,19.96
2018-03-23T00:34:55.294Z,19.95
2018-03-23T00:37:21.259Z,19.96
2018-03-23T00:39:47.230Z,20.05
2018-03-23T00:42:13.207Z,20.02
2018-03-23T00:44:39.177Z,20.01
2018-03-23T00:47:05.134Z,19.99
2018-03-23T00:49:31.192Z,20.01
2018-03-23T00:51:57.146Z,20.01
2018-03-23T00:54:23.099Z,19.98
2018-03-23T00:56:49.046Z,19.96
2018-03-23T00:59:15.023Z,19.93
2018-03-23T01:01:40.998Z,19.98
2018-03-23T01:04:06.995Z,19.96
2018-03-23T01:06:33.002Z,19.97
2018-03-23T01:08:58.929Z,19.94
2018-03-23T01:11:24.882Z,19.90
2018-03-23T01:13:50.831Z,19.98
2018-03-23T01:16:16.783Z,19.96
2018-03-23T01:18:42.757Z,19.91
2018-03-23T01:21:08.717Z,19.88
2018-03-23T01:23:34.733Z,19.88
2018-03-23T01:26:00.690Z,19.89
2018-03-23T01:28:26.652Z,19.94
2018-03-23T01:30:52.633Z,19.86
2018-03-23T01:33:18.599Z,19.82
2018-03-23T01:35:44.583Z,19.85
2018-03-23T01:38:10.543Z,19.92
2018-03-23T01:40:36.519Z,19.91
2018-03-23T01:43:02.469Z,19.94
2018-03-23T01:45:28.459Z,19.87
2018-03-23T01:47:54.439Z,19.85
2018-03-23T01:50:20.401Z,19.84
2018-03-23T01:52:46.390Z,19.93
2018-03-23T01:55:12.346Z,19.89
2018-03-23T01:57:38.314Z,19.88
2018-03-23T02:00:04.293Z,19.86
2018-03-23T02:02:30.256Z,19.88
2018-03-23T02:04:56.234Z,19.90
2018-03-23T02:07:22.195Z,19.77
2018-03-23T02:09:48.191Z,19.86
2018-03-23T02:12:14.150Z,19.81
2018-03-23T02:14:40.125Z,19.87
2018-03-23T02:17:06.081Z,19.84
2018-03-23T02:19:32.046Z,19.85
2018-03-23T02:21:58.017Z,19.90
2018-03-23T02:24:23.957Z,19.80
2018-03-23T02:26:49.957Z,19.81
2018-03-23T02:29:15.922Z,19.84
2018-03-23T02:31:41.922Z,19.78
2018-03-23T02:34:07.879Z,19.83
2018-03-23T02:36:33.832Z,19.85
2018-03-23T02:38:59.790Z,19.85
2018-03-23T02:41:25.764Z,19.76
2018-03-23T02:43:51.742Z,19.86
2018-03-23T02:46:17.719Z,19.78
2018-03-23T02:48:43.683Z,19.81
2018-03-23T02:51:09.654Z,19.79
2018-03-23T02:53:35.700Z,19.79
2018-03-23T02:56:01.665Z,19.74
2018-03-23T02:58:27.629Z,19.74
2018-03-23T03:00:53.611Z,19.78
2018-03-23T03:03:19.573Z,19.76
2018-03-23T03:05:45.547Z,19.77
2018-03-23T03:08:11.512Z,19.74
2018-03-23T03:10:37.462Z,19.76
2018-03-23T03:13:03.411Z,19.76
2018-03-23T03:15:29.374Z,19.77
2018-03-23T03:17:55.338Z,19.73
2018-03-23T03:20:21.317Z,19.80
2018-03-23T03:22:47.293Z,19.76
2018-03-23T03:25:13.258Z,19.74
2018-03-23T03:27:39.215Z,19.74
2018-03-23T03:30:05.177Z,19.74
2018-03-23T03:32:31.169Z,19.84
2018-03-23T03:34:57.150Z,19.85
2018-03-23T03:37:23.123Z,20.01
2018-03-23T03:39:49.130Z,20.07
2018-03-23T03:42:15.085Z,20.24
2018-03-23T03:44:41.106Z,20.30
2018-03-23T03:47:07.057Z,20.44
2018-03-23T03:49:33.039Z,20.35
2018-03-23T03:51:59.008Z,20.39
2018-03-23T03:54:24.984Z,20.58
2018-03-23T03:56:50.934Z,20.45
2018-03-23T03:59:16.885Z,20.42
2018-03-23T04:01:42.870Z,20.46
2018-03-23T04:04:08.824Z,20.60
2018-03-23T04:06:34.843Z,20.66
2018-03-23T04:09:00.798Z,20.54
2018-03-23T04:11:26.782Z,20.64
2018-03-23T04:13:52.753Z,20.63
2018-03-23T04:16:18.947Z,20.59
2018-03-23T04:18:44.917Z,20.51
2018-03-23T04:21:10.890Z,20.66
2018-03-23T04:23:36.843Z,20.65
2018-03-23T04:26:02.800Z,20.54
2018-03-23T04:28:28.772Z,20.62
2018-03-23T04:30:54.750Z,20.67
2018-03-23T04:33:20.706Z,20.63
2018-03-23T04:35:46.687Z,20.53
2018-03-23T04:38:12.738Z,20.57
2018-03-23T04:40:38.674Z,20.64
2018-03-23T04:43:04.631Z,20.62
2018-03-23T04:45:30.609Z,20.61
2018-03-23T04:47:56.584Z,20.59
2018-03-23T04:50:22.534Z,20.55
2018-03-23T04:52:48.514Z,20.56
2018-03-23T04:55:14.488Z,20.53
2018-03-23T04:57:40.438Z,20.44
2018-03-23T05:00:06.395Z,20.39
2018-03-23T05:02:32.355Z,20.47
2018-03-23T05:04:58.310Z,20.43
2018-03-23T05:07:24.289Z,20.32
2018-03-23T05:09:50.267Z,20.38
2018-03-23T05:12:16.254Z,20.37
2018-03-23T05:14:42.169Z,20.34
2018-03-23T05:17:08.126Z,20.32
2018-03-23T05:19:34.081Z,20.38
2018-03-23T05:22:00.075Z,20.59
2018-03-23T05:24:26.022Z,20.62
2018-03-23T05:26:52.069Z,20.58
2018-03-23T05:29:18.060Z,20.47
2018-03-23T05:31:44.006Z,20.42
2018-03-23T05:34:09.958Z,20.52
2018-03-23T05:36:35.960Z,20.49
2018-03-23T05:39:01.925Z,20.45
2018-03-23T05:41:27.895Z,20.47
2018-03-23T05:43:53.859Z,20.52
2018-03-23T05:46:19.887Z,20.49
2018-03-23T05:48:45.797Z,20.48
2018-03-23T05:51:11.759Z,20.47
2018-03-23T05:53:37.722Z,20.40
2018-03-23T05:56:03.726Z,20.39
2018-03-23T05:58:29.694Z,20.42
2018-03-23T06:00:55.677Z,20.40
2018-03-23T06:03:21.655Z,20.42
2018-03-23T06:05:47.662Z,20.40
2018-03-23T06:08:13.819Z,20.34
2018-03-23T06:10:39.819Z,20.40
2018-03-23T06:13:05.778Z,20.35
2018-03-23T06:15:31.739Z,20.46
2018-03-23T06:17:57.688Z,20.60
2018-03-23T06:20:23.714Z,20.59
2018-03-23T06:22:49.741Z,20.57
2018-03-23T06:25:15.695Z,20.57
2018-03-23T06:27:41.642Z,20.63
2018-03-23T06:30:07.599Z,20.60
2018-03-23T06:32:33.572Z,20.51
2018-03-23T06:34:59.546Z,20.58
2018-03-23T06:37:25.543Z,20.65
2018-03-23T06:39:51.509Z,20.65
2018-03-23T06:42:17.478Z,20.49
2018-03-23T06:44:43.429Z,20.50
2018-03-23T06:47:09.442Z,20.50
2018-03-23T06:49:35.357Z,20.53
2018-03-23T06:52:01.331Z,20.48
2018-03-23T06:54:27.352Z,20.48
2018-03-23T06:56:53.281Z,20.41
2018-03-23T06:59:19.250Z,20.43
2018-03-23T07:01:45.211Z,20.42
2018-03-23T07:04:11.174Z,20.42
2018-03-23T07:06:37.172Z,20.40
2018-03-23T07:09:03.130Z,20.38
2018-03-23T07:11:29.085Z,20.41
2018-03-23T07:13:55.046Z,20.47
2018-03-23T07:16:20.992Z,20.45
2018-03-23T07:18:46.992Z,20.44
2018-03-23T07:21:12.899Z,20.58
2018-03-23T07:23:38.882Z,20.46
2018-03-23T07:26:04.830Z,20.45
2018-03-23T07:28:30.807Z,20.40
2018-03-23T07:30:56.766Z,20.39
2018-03-23T07:33:22.718Z,20.47
2018-03-23T07:35:48.677Z,20.49
2018-03-23T07:38:14.657Z,20.46
2018-03-23T07:40:40.606Z,20.42
2018-03-23T07:43:06.592Z,20.41
2018-03-23T07:45:32.551Z,20.39
2018-03-23T07:47:58.502Z,20.44
2018-03-23T07:50:24.461Z,20.40
2018-03-23T07:52:50.425Z,20.38
2018-03-23T07:55:16.374Z,20.50
2018-03-23T07:57:42.351Z,20.43
2018-03-23T08:00:08.306Z,20.50
2018-03-23T08:02:34.270Z,20.37
2018-03-23T08:05:00.323Z,20.41
2018-03-23T08:07:26.261Z,20.45
2018-03-23T08:09:52.343Z,20.43
2018-03-23T08:12:18.308Z,20.41
2018-03-23T08:14:44.282Z,20.38
2018-03-23T08:17:10.256Z,20.40
2018-03-23T08:19:36.290Z,20.45
2018-03-23T08:22:02.254Z,20.44
2018-03-23T08:24:28.235Z,20.38
2018-03-23T08:26:54.193Z,20.42
2018-03-23T08:29:20.151Z,20.44
2018-03-23T08:31:46.162Z,20.49
2018-03-23T08:34:12.134Z,20.42
2018-03-23T08:36:38.094Z,20.34
2018-03-23T08:39:04.077Z,20.40
2018-03-23T08:41:30.055Z,20.44
2018-03-23T08:43:56.068Z,20.46
2018-03-23T08:46:22.028Z,20.46
2018-03-23T08:48:47.989Z,20.43
2018-03-23T08:51:13.942Z,20.52
2018-03-23T08:53:39.924Z,20.50
2018-03-23T08:56:05.899Z,20.56
2018-03-23T08:58:31.844Z,20.69
2018-03-23T09:00:57.818Z,20.77
2018-03-23T09:03:23.769Z,20.71
2018-03-23T09:05:49.734Z,20.65
2018-03-23T09:08:15.706Z,20.68
2018-03-23T09:10:41.695Z,20.67
2018-03-23T09:13:07.674Z,20.66
2018-03-23T09:15:33.674Z,20.66
2018-03-23T09:17:59.622Z,20.54
2018-03-23T09:20:25.585Z,20.57
2018-03-23T09:22:51.546Z,20.54
2018-03-23T09:25:17.534Z,20.68
2018-03-23T09:27:43.562Z,20.64
2018-03-23T09:30:09.509Z,20.67
2018-03-23T09:32:35.477Z,20.64
2018-03-23T09:35:01.449Z,20.61
2018-03-23T09:37:27.418Z,20.65
2018-03-23T09:39:53.394Z,20.64
2018-03-23T09:42:19.366Z,20.70
2018-03-23T09:44:45.324Z,20.69
2018-03-23T09:47:11.306Z,20.71
2018-03-23T09:49:37.262Z,20.66
2018-03-23T09:52:03.224Z,20.66
2018-03-23T09:54:29.187Z,20.74
2018-03-23T09:56:55.152Z,20.70
2018-03-23T09:59:21.122Z,20.68
2018-03-23T10:01:47.238Z,20.69
2018-03-23T10:04:13.309Z,20.73
2018-03-23T10:06:39.266Z,20.81
2018-03-23T10:09:05.247Z,20.79
2018-03-23T10:11:31.210Z,20.92
2018-03-23T10:13:57.194Z,20.94
2018-03-23T10:16:23.165Z,20.99
2018-03-23T10:18:49.132Z,20.74
2018-03-23T10:21:15.107Z,20.72
2018-03-23T10:23:41.027Z,20.75
2018-03-23T10:26:07.027Z,20.72
2018-03-23T10:28:32.997Z,20.70
2018-03-23T10:30:59.089Z,20.65
2018-03-23T10:33:25.078Z,20.75
2018-03-23T10:35:51.079Z,20.76
2018-03-23T10:38:17.082Z,20.76
2018-03-23T10:40:43.065Z,20.86
2018-03-23T10:43:09.010Z,20.77
2018-03-23T10:45:34.949Z,20.73
2018-03-23T10:48:00.969Z,20.70
2018-03-23T10:50:26.922Z,20.73
2018-03-23T10:52:52.925Z,20.75
2018-03-23T10:55:18.923Z,20.74
2018-03-23T10:57:44.874Z,20.70
2018-03-23T11:00:10.811Z,20.79
2018-03-23T11:02:36.967Z,20.80
2018-03-23T11:05:02.942Z,20.79
2018-03-23T11:07:28.959Z,20.79
2018-03-23T11:09:54.914Z,20.78
2018-03-23T11:12:20.962Z,20.80
2018-03-23T11:14:47.022Z,20.81
2018-03-23T11:17:13.066Z,20.85
2018-03-23T11:19:39.026Z,20.86
2018-03-23T11:22:04.994Z,20.79
2018-03-23T11:24:31.012Z,20.75
2018-03-23T11:26:56.946Z,20.63
2018-03-23T11:29:22.915Z,20.63
2018-03-23T11:31:48.853Z,20.66
2018-03-23T11:34:14.826Z,20.63
2018-03-23T11:36:40.798Z,20.69
2018-03-23T11:39:06.745Z,20.63
2018-03-23T11:41:32.752Z,20.58
2018-03-23T11:43:58.722Z,20.62
2018-03-23T11:46:24.669Z,20.61
2018-03-23T11:48:50.638Z,20.60
2018-03-23T11:51:16.608Z,20.60
2018-03-23T11:53:42.553Z,20.58
2018-03-23T11:56:08.522Z,20.55
2018-03-23T11:58:34.516Z,20.52
2018-03-23T12:01:00.482Z,20.59
2018-03-23T12:03:26.478Z,20.53
2018-03-23T12:05:52.489Z,20.56
2018-03-23T12:08:18.449Z,20.63
2018-03-23T12:10:44.433Z,20.59
2018-03-23T12:13:10.402Z,20.63
2018-03-23T12:15:36.389Z,20.57
2018-03-23T12:18:02.346Z,20.70
2018-03-23T12:20:28.335Z,20.57
2018-03-23T12:22:54.314Z,20.57
2018-03-23T12:25:20.304Z,20.57
2018-03-23T12:27:46.272Z,20.66
2018-03-23T12:30:12.228Z,20.62
2018-03-23T12:32:38.210Z,20.57
2018-03-23T12:35:04.162Z,20.58
2018-03-23T12:37:30.142Z,20.60
2018-03-23T12:39:56.127Z,20.59
2018-03-23T12:42:22.113Z,20.59
2018-03-23T12:44:48.113Z,20.61
2018-03-23T12:47:14.059Z,20.53
2018-03-23T12:49:40.006Z,20.56
2018-03-23T12:52:05.961Z,20.59
2018-03-23T12:54:31.932Z,20.57
2018-03-23T12:56:57.898Z,20.58
2018-03-23T12:59:23.899Z,20.61
2018-03-23T13:01:49.886Z,20.62
2018-03-23T13:04:15.863Z,20.58
2018-03-23T13:06:41.833Z,20.54
2018-03-23T13:09:07.785Z,20.56
2018-03-23T13:11:33.887Z,20.58
2018-03-23T13:13:59.835Z,20.64
2018-03-23T13:16:25.800Z,20.57
2018-03-23T13:18:51.888Z,20.54
2018-03-23T13:21:17.877Z,20.59
2018-03-23T13:23:43.865Z,20.55
2018-03-23T13:26:09.859Z,20.57
2018-03-23T13:28:35.848Z,20.56
2018-03-23T13:31:01.811Z,20.58
2018-03-23T13:33:27.787Z,20.53
2018-03-23T13:35:53.775Z,20.53
2018-03-23T13:38:19.782Z,20.52
2018-03-23T13:40:45.757Z,20.52
2018-03-23T13:43:11.741Z,20.46
2018-03-23T13:45:37.731Z,20.49
2018-03-23T13:48:03.721Z,20.51
2018-03-23T13:50:29.839Z,20.54
2018-03-23T13:52:55.853Z,20.49
2018-03-23T13:55:21.913Z,20.52
2018-03-23T13:57:47.896Z,20.54
2018-03-23T14:00:13.881Z,20.54
2018-03-23T14:02:39.846Z,20.56
2018-03-23T14:05:05.811Z,20.53
2018-03-23T14:07:31.853Z,20.51
2018-03-23T14:09:57.843Z,20.49
2018-03-23T14:12:23.814Z,20.47
2018-03-23T14:14:49.956Z,20.44
2018-03-23T14:17:15.935Z,20.49
2018-03-23T14:19:41.887Z,20.50
2018-03-23T14:22:07.902Z,20.50
2018-03-23T14:24:33.817Z,20.47
2018-03-23T14:26:59.817Z,20.56
2018-03-23T14:29:25.832Z,20.48
2018-03-23T14:31:51.774Z,20.52
2018-03-23T14:34:17.737Z,20.44
2018-03-23T14:36:43.714Z,20.48
2018-03-23T14:39:09.721Z,20.46
2018-03-23T14:41:35.690Z,20.51
2018-03-23T14:44:01.660Z,20.50
2018-03-23T14:46:27.630Z,20.48
2018-03-23T14:48:53.618Z,20.54
2018-03-23T14:51:19.583Z,20.58
2018-03-23T14:53:45.574Z,20.59
2018-03-23T14:56:11.734Z,20.54
2018-03-23T14:58:37.680Z,20.51
2018-03-23T15:01:03.654Z,20.49
2018-03-23T15:03:29.619Z,20.53
2018-03-23T15:05:55.620Z,20.51
2018-03-23T15:08:23.048Z,20.52
2018-03-23T15:10:49.069Z,20.48
2018-03-23T15:13:15.065Z,20.49
2018-03-23T15:15:41.037Z,20.47
2018-03-23T15:18:07.016Z,20.45
2018-03-23T15:20:32.983Z,20.46
2018-03-23T15:22:58.953Z,20.48
2018-03-23T15:25:24.920Z,20.52
2018-03-23T15:27:50.884Z,20.53
2018-03-23T15:30:16.840Z,20.45
2018-03-23T15:32:42.829Z,20.46
2018-03-23T15:35:08.800Z,20.45
2018-03-23T15:37:34.759Z,20.50
2018-03-23T15:40:00.703Z,20.53
2018-03-23T15:42:26.646Z,20.51
2018-03-23T15:44:52.662Z,20.45
2018-03-23T15:47:18.614Z,20.44
2018-03-23T15:49:44.574Z,20.46
2018-03-23T15:52:10.542Z,20.49
2018-03-23T15:54:36.489Z,20.49
2018-03-23T15:57:02.448Z,20.49
2018-03-23T15:59:28.422Z,20.47
2018-03-23T16:01:54.440Z,20.47
2018-03-23T16:04:20.380Z,20.50
2018-03-23T16:06:46.329Z,20.43
2018-03-23T16:09:12.287Z,20.45
2018-03-23T16:11:38.269Z,20.45
2018-03-23T16:14:04.251Z,20.48
2018-03-23T16:16:30.214Z,20.43
2018-03-23T16:18:56.169Z,20.49
2018-03-23T16:21:22.124Z,20.45
2018-03-23T16:23:48.090Z,20.53
2018-03-23T16:26:14.067Z,20.44
2018-03-23T16:28:40.028Z,20.45
2018-03-23T16:31:06.007Z,20.45
2018-03-23T16:33:31.987Z,20.45
2018-03-23T16:35:57.958Z,20.44
2018-03-23T16:38:23.941Z,20.47
2018-03-23T16:40:49.904Z,20.51
2018-03-23T16:43:15.859Z,20.49
2018-03-23T16:45:41.872Z,20.47
2018-03-23T16:48:07.837Z,20.49
2018-03-23T16:50:33.837Z,20.54
2018-03-23T16:52:59.813Z,20.47
2018-03-23T16:55:25.909Z,20.42
2018-03-23T16:57:51.906Z,20.49
2018-03-23T17:00:17.865Z,20.49
2018-03-23T17:02:43.853Z,20.52
2018-03-23T17:05:09.811Z,20.51
2018-03-23T17:07:35.774Z,20.53
2018-03-23T17:10:01.738Z,20.58
2018-03-23T17:12:27.767Z,20.58
2018-03-23T17:14:53.725Z,20.55
2018-03-23T17:17:19.713Z,20.52
2018-03-23T17:19:45.681Z,20.44
2018-03-23T17:22:11.691Z,20.47
2018-03-23T17:24:37.646Z,20.50
2018-03-23T17:27:03.651Z,20.47
2018-03-23T17:29:29.720Z,20.49
2018-03-23T17:31:55.682Z,20.46
2018-03-23T17:34:21.770Z,20.48
2018-03-23T17:36:47.767Z,20.46
2018-03-23T17:39:13.854Z,20.44
2018-03-23T17:41:39.824Z,20.52
2018-03-23T17:44:06.046Z,20.46
2018-03-23T17:46:32.025Z,20.48
2018-03-23T17:48:58.073Z,20.45
2018-03-23T17:51:24.012Z,20.49
2018-03-23T17:53:50.279Z,20.52
2018-03-23T17:56:16.268Z,20.54
2018-03-23T17:58:42.247Z,20.51
2018-03-23T18:01:08.471Z,20.55
2018-03-23T18:03:34.535Z,20.56
2018-03-23T18:06:00.592Z,20.51
2018-03-23T18:08:26.571Z,20.51
2018-03-23T18:10:52.550Z,20.49
2018-03-23T18:13:18.534Z,20.47
2018-03-23T18:15:44.485Z,20.53
2018-03-23T18:18:10.483Z,20.49
2018-03-23T18:20:36.430Z,20.55
2018-03-23T18:23:02.430Z,20.45
2018-03-23T18:25:28.428Z,20.40
2018-03-23T18:27:54.401Z,20.42
2018-03-23T18:30:20.369Z,20.44
2018-03-23T18:32:46.350Z,20.42
2018-03-23T18:35:12.311Z,20.39
2018-03-23T18:37:38.299Z,20.40
2018-03-23T18:40:04.260Z,20.44
2018-03-23T18:42:30.293Z,20.51
2018-03-23T18:44:56.266Z,20.50
2018-03-23T18:47:22.222Z,20.51
2018-03-23T18:49:48.194Z,20.47
2018-03-23T18:52:14.148Z,20.54
2018-03-23T18:54:40.107Z,20.50
2018-03-23T18:57:07.277Z,20.44
2018-03-23T18:59:33.243Z,20.43
2018-03-23T19:01:59.262Z,20.52
2018-03-23T19:04:25.245Z,20.49
2018-03-23T19:06:51.215Z,20.50
2018-03-23T19:09:17.173Z,20.49
2018-03-23T19:11:43.138Z,20.47
2018-03-23T19:14:09.131Z,20.47
2018-03-23T19:16:35.099Z,20.43
2018-03-23T19:19:01.077Z,20.47
2018-03-23T19:21:27.034Z,20.51
2018-03-23T19:23:53.040Z,20.49
2018-03-23T19:26:18.987Z,20.49
2018-03-23T19:28:44.958Z,20.54
2018-03-23T19:31:10.930Z,20.56
2018-03-23T19:33:36.903Z,20.51
2018-03-23T19:36:02.934Z,20.51
2018-03-23T19:38:28.891Z,20.51
2018-03-23T19:40:54.851Z,20.50
2018-03-23T19:43:20.809Z,20.48
2018-03-23T19:45:46.858Z,20.52
2018-03-23T19:48:12.810Z,20.48
2018-03-23T19:50:38.806Z,20.49
2018-03-23T19:53:04.791Z,20.54
2018-03-23T19:55:30.780Z,20.51
2018-03-23T19:57:56.728Z,20.55
2018-03-23T20:00:22.665Z,20.52
2018-03-23T20:02:48.680Z,20.56
2018-03-23T20:05:14.604Z,20.52
2018-03-23T20:07:40.559Z,20.53
2018-03-23T20:10:06.526Z,20.51
2018-03-23T20:12:32.525Z,20.50
2018-03-23T20:14:58.485Z,20.53
2018-03-23T20:17:24.459Z,20.49
2018-03-23T20:19:50.423Z,20.55
2018-03-23T20:22:16.392Z,20.54
2018-03-23T20:24:42.370Z,20.50
2018-03-23T20:27:08.354Z,20.55
2018-03-23T20:29:34.322Z,20.55
2018-03-23T20:32:00.281Z,20.57
2018-03-23T20:34:26.270Z,20.53
2018-03-23T20:36:52.230Z,20.54
2018-03-23T20:39:18.190Z,20.55
2018-03-23T20:41:44.162Z,20.56
2018-03-23T20:44:10.182Z,20.54
2018-03-23T20:46:36.153Z,20.52
2018-03-23T20:49:02.114Z,20.55
2018-03-23T20:51:28.101Z,20.53
2018-03-23T20:53:54.083Z,20.50
2018-03-23T20:56:20.057Z,20.50
2018-03-23T20:58:46.041Z,20.56
2018-03-23T21:01:11.994Z,20.55
2018-03-23T21:03:37.950Z,20.58
2018-03-23T21:06:03.955Z,20.55
2018-03-23T21:08:29.924Z,20.54
2018-03-23T21:10:55.904Z,20.54
2018-03-23T21:13:22.062Z,20.63
2018-03-23T21:15:48.033Z,20.53
2018-03-23T21:18:14.000Z,20.51
2018-03-23T21:20:39.969Z,20.48
2018-03-23T21:23:05.961Z,20.49
2018-03-23T21:25:31.923Z,20.48
2018-03-23T21:27:57.894Z,20.48
2018-03-23T21:30:23.909Z,20.49
2018-03-23T21:32:49.892Z,20.51
2018-03-23T21:35:15.904Z,20.42
2018-03-23T21:37:41.857Z,20.45
2018-03-23T21:40:07.815Z,20.49
2018-03-23T21:42:33.777Z,20.41
2018-03-23T21:44:59.761Z,20.38
2018-03-23T21:47:25.725Z,20.35
2018-03-23T21:49:51.695Z,20.40
2018-03-23T21:52:17.662Z,20.39
2018-03-23T21:54:43.630Z,20.41
2018-03-23T21:57:09.598Z,20.35
2018-03-23T21:59:35.568Z,20.34
2018-03-23T22:02:01.535Z,20.33
2018-03-23T22:04:27.535Z,20.32
2018-03-23T22:06:53.483Z,20.32
2018-03-23T22:09:19.445Z,20.31
2018-03-23T22:11:45.402Z,20.33
2018-03-23T22:14:11.410Z,20.33
2018-03-23T22:16:37.414Z,20.31
2018-03-23T22:19:03.392Z,20.30
2018-03-23T22:21:29.407Z,20.29
2018-03-23T22:23:55.459Z,20.25
2018-03-23T22:26:21.392Z,20.26
2018-03-23T22:28:47.368Z,20.23
2018-03-23T22:31:13.378Z,20.24
2018-03-23T22:33:39.351Z,20.21
2018-03-23T22:36:05.310Z,20.21
2018-03-23T22:38:31.283Z,20.21
2018-03-23T22:40:57.263Z,20.19
2018-03-23T22:43:23.205Z,20.13
2018-03-23T22:45:49.185Z,20.18
2018-03-23T22:48:15.165Z,20.18
2018-03-23T22:50:41.112Z,20.25
2018-03-23T22:53:07.082Z,20.24
2018-03-23T22:55:33.226Z,20.16
2018-03-23T22:57:59.158Z,20.15
2018-03-23T23:00:25.185Z,20.19
2018-03-23T23:02:51.145Z,20.18
2018-03-23T23:05:17.099Z,20.15
2018-03-23T23:07:43.071Z,20.19
2018-03-23T23:10:09.013Z,20.20
2018-03-23T23:12:34.978Z,20.17
2018-03-23T23:15:00.967Z,20.17
2018-03-23T23:17:26.918Z,20.15
2018-03-23T23:19:52.956Z,20.14
2018-03-23T23:22:18.918Z,20.14
2018-03-23T23:24:44.858Z,20.10
2018-03-23T23:27:10.854Z,20.13
2018-03-23T23:29:36.862Z,20.07
2018-03-23T23:32:02.841Z,20.11
2018-03-23T23:34:28.804Z,20.10
2018-03-23T23:36:54.779Z,20.08
2018-03-23T23:39:20.752Z,20.07
2018-03-23T23:41:46.726Z,20.06
2018-03-23T23:44:12.684Z,20.03
2018-03-23T23:46:38.643Z,20.05
2018-03-23T23:49:04.611Z,20.02
2018-03-23T23:51:30.594Z,20.04
2018-03-23T23:53:56.553Z,20.02
2018-03-23T23:56:22.526Z,20.01
2018-03-23T23:58:48.470Z,20.07
